createdAt,value
2022-10-17T00:00:53.074Z,84.18
2022-10-17T00:03:25.821Z,84.63
2022-10-17T00:05:58.382Z,84.73
2022-10-17T00:08:30.247Z,84.69
2022-10-17T00:11:06.803Z,84.47
2022-10-17T00:13:38.631Z,84.31
2022-10-17T00:16:13.665Z,84.69
2022-10-17T00:18:45.300Z,84.48
2022-10-17T00:21:18.840Z,84.83
2022-10-17T00:23:50.930Z,84.72
2022-10-17T00:26:22.880Z,85.00
2022-10-17T00:28:54.871Z,84.46
2022-10-17T00:31:26.782Z,84.65
2022-10-17T00:33:58.600Z,84.31
2022-10-17T00:36:33.047Z,83.92
2022-10-17T00:39:04.742Z,83.98
2022-10-17T00:41:40.696Z,84.31
2022-10-17T00:44:30.853Z,83.95
2022-10-17T00:47:06.305Z,84.12
2022-10-17T00:49:40.793Z,84.41
2022-10-17T00:52:17.128Z,84.13
2022-10-17T00:54:54.324Z,84.05
2022-10-17T00:57:31.491Z,84.00
2022-10-17T01:00:06.732Z,84.11
2022-10-17T01:02:40.026Z,84.11
2022-10-17T01:05:12.810Z,84.18
2022-10-17T01:07:46.193Z,84.36
2022-10-17T01:10:19.075Z,84.22
2022-10-17T01:13:17.560Z,84.27
2022-10-17T01:16:05.530Z,84.36
2022-10-17T01:18:45.044Z,84.41
2022-10-17T01:22:01.619Z,83.93
2022-10-17T01:24:50.192Z,83.71
2022-10-17T01:27:45.701Z,83.86
2022-10-17T01:30:47.783Z,83.63
2022-10-17T01:33:39.995Z,83.55
2022-10-17T01:36:37.464Z,83.63
2022-10-17T01:39:15.961Z,83.99
2022-10-17T01:42:07.104Z,84.33
2022-10-17T01:44:57.645Z,84.65
2022-10-17T01:47:40.576Z,85.13
2022-10-17T01:50:32.220Z,85.17
2022-10-17T01:53:19.761Z,85.53
2022-10-17T01:55:54.188Z,85.43
2022-10-17T01:58:33.867Z,85.33
2022-10-17T02:01:09.919Z,85.14
2022-10-17T02:03:43.833Z,84.78
2022-10-17T02:06:15.605Z,84.40
2022-10-17T02:08:49.371Z,84.39
2022-10-17T02:11:26.374Z,83.96
2022-10-17T02:14:07.165Z,84.13
2022-10-17T02:16:50.540Z,84.00
2022-10-17T02:19:44.093Z,84.03
2022-10-17T02:22:34.870Z,84.03
2022-10-17T02:25:30.792Z,83.65
2022-10-17T02:28:21.056Z,83.87
2022-10-17T02:30:58.359Z,83.82
2022-10-17T02:33:59.531Z,84.80
2022-10-17T02:36:38.917Z,84.74
2022-10-17T02:39:12.517Z,84.96
2022-10-17T02:41:45.577Z,84.59
2022-10-17T02:44:18.829Z,84.46
2022-10-17T02:47:23.674Z,83.82
2022-10-17T02:49:58.512Z,84.35
2022-10-17T02:52:56.089Z,84.16
2022-10-17T02:55:35.932Z,83.69
2022-10-17T02:58:13.764Z,83.53
2022-10-17T03:00:46.186Z,83.41
2022-10-17T03:03:23.596Z,83.74
2022-10-17T03:05:56.048Z,83.31
2022-10-17T03:08:30.425Z,83.81
2022-10-17T03:11:02.631Z,83.52
2022-10-17T03:13:39.006Z,83.74
2022-10-17T03:16:11.823Z,83.45
2022-10-17T03:18:46.609Z,83.47
2022-10-17T03:21:21.030Z,83.13
2022-10-17T03:23:52.808Z,83.67
2022-10-17T03:26:29.500Z,84.07
2022-10-17T03:29:01.821Z,83.88
2022-10-17T03:31:34.727Z,83.67
2022-10-17T03:34:07.603Z,83.18
2022-10-17T03:36:40.356Z,83.17
2022-10-17T03:39:12.265Z,83.55
2022-10-17T03:41:43.993Z,83.23
2022-10-17T03:44:15.791Z,83.23
2022-10-17T03:46:47.948Z,83.67
2022-10-17T03:49:20.221Z,83.67
2022-10-17T03:51:51.938Z,83.87
2022-10-17T03:54:24.507Z,84.22
2022-10-17T03:59:32.084Z,84.35
2022-10-17T04:02:09.693Z,84.51
2022-10-17T04:04:41.759Z,84.54
2022-10-17T04:07:13.861Z,84.31
2022-10-17T04:09:48.997Z,84.06
2022-10-17T04:12:25.323Z,84.21
2022-10-17T04:14:57.921Z,84.42
2022-10-17T04:17:35.800Z,84.31
2022-10-17T04:20:13.580Z,83.98
2022-10-17T04:22:45.340Z,83.90
2022-10-17T04:25:18.178Z,84.56
2022-10-17T04:27:51.765Z,85.18
2022-10-17T04:30:24.490Z,84.61
2022-10-17T04:32:56.206Z,84.23
2022-10-17T04:35:28.137Z,83.78
2022-10-17T04:38:06.665Z,83.63
2022-10-17T04:40:38.490Z,83.78
2022-10-17T04:43:10.278Z,84.08
2022-10-17T04:45:42.426Z,84.33
2022-10-17T04:48:14.859Z,84.46
2022-10-17T04:51:00.408Z,84.29
2022-10-17T04:53:43.008Z,84.41
2022-10-17T04:56:21.200Z,84.74
2022-10-17T04:58:53.039Z,84.38
2022-10-17T05:01:29.705Z,84.48
2022-10-17T05:04:02.511Z,84.36
2022-10-17T05:06:34.797Z,83.81
2022-10-17T05:09:36.937Z,83.96
2022-10-17T05:12:10.426Z,83.74
2022-10-17T05:14:45.916Z,83.84
2022-10-17T05:17:18.906Z,84.15
2022-10-17T05:19:53.123Z,83.89
2022-10-17T05:22:24.923Z,83.82
2022-10-17T05:24:58.405Z,83.12
2022-10-17T05:27:30.421Z,83.01
2022-10-17T05:30:02.277Z,83.20
2022-10-17T05:32:38.522Z,83.42
2022-10-17T05:35:10.436Z,83.25
2022-10-17T05:37:45.851Z,83.16
2022-10-17T05:40:18.221Z,83.66
2022-10-17T05:42:56.511Z,83.45
2022-10-17T05:45:29.718Z,83.54
2022-10-17T05:48:01.952Z,84.11
2022-10-17T05:50:34.020Z,83.45
2022-10-17T05:53:19.887Z,82.88
2022-10-17T05:55:57.144Z,81.44
2022-10-17T05:58:48.804Z,79.54
2022-10-17T06:01:32.261Z,78.64
2022-10-17T06:04:03.982Z,76.63
2022-10-17T06:06:38.002Z,74.58
2022-10-17T06:09:16.407Z,73.71
2022-10-17T06:12:00.829Z,72.54
2022-10-17T06:14:32.550Z,71.74
2022-10-17T06:17:12.092Z,70.68
2022-10-17T06:19:54.249Z,70.46
2022-10-17T06:22:25.981Z,67.76
2022-10-17T06:24:57.850Z,64.98
2022-10-17T06:27:31.678Z,62.05
2022-10-17T06:30:04.451Z,59.59
2022-10-17T06:32:36.753Z,58.21
2022-10-17T06:35:08.532Z,56.95
2022-10-17T06:37:42.350Z,55.12
2022-10-17T06:40:16.828Z,53.20
2022-10-17T06:42:51.766Z,51.85
2022-10-17T06:45:40.891Z,49.11
2022-10-17T06:48:54.300Z,47.55
2022-10-17T06:51:38.060Z,46.30
2022-10-17T06:54:12.777Z,45.04
2022-10-17T06:56:54.194Z,43.38
2022-10-17T06:59:35.610Z,43.03
2022-10-17T07:02:16.906Z,42.42
2022-10-17T07:04:49.351Z,42.07
2022-10-17T07:07:21.053Z,40.89
2022-10-17T07:09:53.087Z,40.20
2022-10-17T07:12:26.176Z,39.93
2022-10-17T07:14:57.848Z,39.89
2022-10-17T07:17:30.046Z,39.47
2022-10-17T07:20:05.367Z,38.67
2022-10-17T07:22:40.426Z,38.43
2022-10-17T07:25:12.282Z,38.46
2022-10-17T07:27:53.283Z,39.41
2022-10-17T07:30:26.895Z,39.66
2022-10-17T07:33:07.464Z,40.29
2022-10-17T07:35:42.750Z,40.33
2022-10-17T07:38:15.688Z,40.00
2022-10-17T07:41:03.380Z,39.75
2022-10-17T07:43:36.783Z,40.41
2022-10-17T07:46:11.517Z,40.30
2022-10-17T07:48:43.797Z,39.16
2022-10-17T07:51:15.584Z,38.87
2022-10-17T07:53:48.898Z,38.58
2022-10-17T07:56:24.681Z,39.12
2022-10-17T08:01:34.069Z,38.44
2022-10-17T08:04:05.885Z,37.86
2022-10-17T08:06:38.340Z,36.92
2022-10-17T08:09:10.029Z,37.30
2022-10-17T08:11:44.080Z,37.04
2022-10-17T08:14:16.941Z,37.28
2022-10-17T08:16:48.662Z,37.57
2022-10-17T08:19:20.432Z,37.82
2022-10-17T08:21:52.444Z,37.91
2022-10-17T08:24:24.168Z,38.20
2022-10-17T08:26:57.510Z,37.56
2022-10-17T08:29:29.359Z,37.38
2022-10-17T08:32:03.001Z,37.62
2022-10-17T08:34:37.602Z,37.61
2022-10-17T08:39:42.322Z,38.36
2022-10-17T08:42:51.379Z,37.94
2022-10-17T08:45:52.501Z,37.60
2022-10-17T08:48:26.255Z,38.20
2022-10-17T08:51:03.283Z,37.81
2022-10-17T08:53:39.752Z,37.68
2022-10-17T08:56:25.125Z,36.91
2022-10-17T08:59:14.532Z,36.92
2022-10-17T09:02:05.407Z,36.89
2022-10-17T09:04:57.621Z,37.17
2022-10-17T09:08:03.337Z,37.51
2022-10-17T09:10:38.406Z,37.41
2022-10-17T09:13:54.157Z,37.00
2022-10-17T09:16:59.840Z,37.07
2022-10-17T09:19:36.455Z,37.37
2022-10-17T09:22:20.210Z,36.99
2022-10-17T09:24:57.041Z,37.72
2022-10-17T09:27:43.299Z,37.61
2022-10-17T09:31:06.832Z,38.31
2022-10-17T09:33:53.921Z,38.21
2022-10-17T09:36:30.222Z,37.95
2022-10-17T09:39:11.435Z,38.51
2022-10-17T09:41:49.798Z,39.22
2022-10-17T09:44:37.957Z,40.63
2022-10-17T09:47:44.402Z,41.04
2022-10-17T09:50:36.540Z,40.42
2022-10-17T09:53:18.636Z,40.17
2022-10-17T09:55:56.226Z,39.36
2022-10-17T09:59:03.512Z,37.47
2022-10-17T10:01:35.330Z,37.25
2022-10-17T10:04:17.469Z,37.28
2022-10-17T10:07:06.816Z,38.13
2022-10-17T10:09:40.198Z,40.61
2022-10-17T10:12:28.921Z,40.89
2022-10-17T10:15:03.211Z,39.54
2022-10-17T10:17:36.526Z,40.17
2022-10-17T10:20:35.193Z,39.44
2022-10-17T10:23:18.300Z,40.57
2022-10-17T10:25:54.952Z,39.69
2022-10-17T10:28:31.080Z,39.92
2022-10-17T10:31:09.906Z,38.88
2022-10-17T10:33:48.076Z,39.68
2022-10-17T10:36:23.042Z,39.66
2022-10-17T10:39:02.579Z,41.26
2022-10-17T10:41:48.129Z,41.05
2022-10-17T10:44:26.367Z,40.58
2022-10-17T10:47:21.328Z,40.00
2022-10-17T10:50:08.581Z,39.32
2022-10-17T10:52:52.557Z,38.62
2022-10-17T10:55:29.814Z,38.50
2022-10-17T10:58:08.573Z,38.65
2022-10-17T11:00:40.846Z,39.50
2022-10-17T11:03:26.704Z,39.34
2022-10-17T11:06:11.526Z,39.80
2022-10-17T11:08:49.304Z,39.66
2022-10-17T11:11:29.695Z,39.16
2022-10-17T11:14:30.547Z,39.11
2022-10-17T11:17:30.663Z,39.51
2022-10-17T11:20:07.424Z,39.36
2022-10-17T11:22:49.294Z,39.50
2022-10-17T11:25:37.980Z,39.93
2022-10-17T11:28:15.695Z,40.87
2022-10-17T11:30:54.638Z,41.73
2022-10-17T11:33:41.847Z,42.71
2022-10-17T11:36:16.968Z,42.32
2022-10-17T11:38:55.625Z,41.93
2022-10-17T11:41:44.039Z,42.19
2022-10-17T11:44:18.586Z,41.22
2022-10-17T11:47:22.914Z,41.93
2022-10-17T11:53:00.713Z,42.87
2022-10-17T11:55:34.451Z,41.62
2022-10-17T12:01:16.118Z,41.00
2022-10-17T12:04:49.435Z,40.88
2022-10-17T12:07:38.349Z,40.56
2022-10-17T12:10:37.186Z,40.42
2022-10-17T12:13:27.999Z,39.55
2022-10-17T12:16:21.528Z,40.14
2022-10-17T12:19:24.436Z,40.39
2022-10-17T12:22:03.669Z,41.25
2022-10-17T12:24:54.259Z,41.96
2022-10-17T12:27:47.415Z,41.74
2022-10-17T12:30:28.722Z,41.76
2022-10-17T12:33:15.303Z,42.56
2022-10-17T12:35:47.302Z,41.95
2022-10-17T12:38:18.938Z,42.47
2022-10-17T12:40:56.220Z,41.91
2022-10-17T12:43:28.468Z,41.54
2022-10-17T12:46:02.454Z,41.79
2022-10-17T12:48:34.159Z,41.40
2022-10-17T12:51:34.687Z,41.48
2022-10-17T12:54:12.929Z,41.85
2022-10-17T12:56:48.146Z,41.85
2022-10-17T12:59:28.894Z,42.26
2022-10-17T13:02:03.586Z,42.57
2022-10-17T13:04:36.572Z,43.02
2022-10-17T13:07:19.786Z,42.91
2022-10-17T13:09:53.421Z,42.82
2022-10-17T13:12:27.665Z,43.25
2022-10-17T13:15:00.064Z,43.30
2022-10-17T13:17:32.143Z,43.14
2022-10-17T13:20:25.648Z,42.89
2022-10-17T13:23:00.859Z,43.85
2022-10-17T13:25:35.520Z,43.66
2022-10-17T13:28:13.695Z,43.60
2022-10-17T13:30:49.639Z,43.54
2022-10-17T13:33:42.665Z,43.98
2022-10-17T13:36:19.720Z,44.15
2022-10-17T13:38:52.165Z,44.46
2022-10-17T13:41:37.058Z,44.56
2022-10-17T13:44:17.749Z,44.96
2022-10-17T13:46:50.233Z,45.07
2022-10-17T13:49:41.797Z,44.85
2022-10-17T13:52:22.225Z,45.27
2022-10-17T13:55:07.339Z,46.15
2022-10-17T13:57:39.040Z,45.78
2022-10-17T14:00:20.447Z,46.38
2022-10-17T14:02:52.193Z,46.29
2022-10-17T14:05:23.920Z,46.35
2022-10-17T14:08:11.160Z,46.78
2022-10-17T14:10:44.592Z,47.01
2022-10-17T14:13:26.116Z,47.05
2022-10-17T14:16:01.569Z,47.19
2022-10-17T14:18:36.850Z,47.73
2022-10-17T14:24:35.651Z,48.27
2022-10-17T14:27:27.861Z,48.28
2022-10-17T14:30:03.856Z,48.51
2022-10-17T14:32:37.081Z,48.84
2022-10-17T14:35:40.367Z,49.01
2022-10-17T14:38:15.771Z,49.29
2022-10-17T14:41:41.288Z,49.16
2022-10-17T14:44:14.021Z,49.31
2022-10-17T14:46:50.763Z,49.77
2022-10-17T14:49:32.895Z,49.75
2022-10-17T14:52:15.179Z,49.96
2022-10-17T14:54:49.809Z,50.02
2022-10-17T14:57:47.075Z,50.29
2022-10-17T15:00:20.875Z,50.24
2022-10-17T15:02:54.829Z,50.20
2022-10-17T15:05:26.952Z,50.57
2022-10-17T15:07:58.642Z,50.86
2022-10-17T15:10:37.395Z,50.79
2022-10-17T15:13:29.028Z,50.68
2022-10-17T15:16:03.066Z,50.71
2022-10-17T15:18:35.030Z,51.09
2022-10-17T15:21:33.253Z,51.37
2022-10-17T15:24:06.160Z,51.50
2022-10-17T15:26:38.189Z,51.58
2022-10-17T15:29:15.451Z,51.89
2022-10-17T15:31:47.088Z,51.79
2022-10-17T15:34:18.792Z,51.71
2022-10-17T15:36:54.705Z,52.37
2022-10-17T15:39:26.466Z,52.29
2022-10-17T15:41:59.171Z,53.05
2022-10-17T15:44:31.361Z,53.39
2022-10-17T15:47:03.563Z,54.43
2022-10-17T15:49:35.374Z,55.08
2022-10-17T15:52:09.020Z,55.67
2022-10-17T15:54:40.862Z,55.89
2022-10-17T15:57:25.532Z,56.13
2022-10-17T15:59:59.500Z,56.66
2022-10-17T16:02:31.209Z,57.66
2022-10-17T16:05:06.343Z,58.10
2022-10-17T16:07:38.059Z,58.57
2022-10-17T16:10:10.424Z,58.65
2022-10-17T16:12:42.857Z,58.67
2022-10-17T16:15:18.800Z,57.97
2022-10-17T16:17:55.803Z,57.85
2022-10-17T16:20:27.837Z,57.71
2022-10-17T16:23:02.387Z,57.48
2022-10-17T16:25:34.892Z,55.87
2022-10-17T16:28:08.470Z,55.81
2022-10-17T16:30:44.573Z,56.06
2022-10-17T16:33:17.970Z,55.78
2022-10-17T16:35:50.186Z,55.66
2022-10-17T16:38:21.880Z,55.76
2022-10-17T16:40:56.800Z,55.91
2022-10-17T16:43:32.239Z,55.98
2022-10-17T16:46:04.452Z,55.96
2022-10-17T16:48:36.237Z,55.79
2022-10-17T16:51:11.256Z,55.81
2022-10-17T16:53:45.585Z,55.98
2022-10-17T16:56:22.057Z,56.13
2022-10-17T16:58:53.792Z,56.09
2022-10-17T17:01:26.618Z,56.35
2022-10-17T17:03:59.139Z,56.32
2022-10-17T17:06:30.928Z,56.76
2022-10-17T17:09:02.761Z,56.72
2022-10-17T17:11:34.871Z,56.86
2022-10-17T17:14:07.507Z,57.01
2022-10-17T17:16:39.329Z,56.91
2022-10-17T17:19:13.670Z,57.01
2022-10-17T17:21:50.139Z,57.43
2022-10-17T17:24:21.913Z,57.39
2022-10-17T17:26:55.353Z,57.63
2022-10-17T17:29:27.244Z,57.88
2022-10-17T17:31:59.024Z,58.04
2022-10-17T17:34:32.149Z,58.40
2022-10-17T17:37:03.837Z,58.73
2022-10-17T17:39:35.481Z,58.75
2022-10-17T17:42:07.154Z,59.32
2022-10-17T17:44:38.819Z,59.44
2022-10-17T17:47:10.588Z,59.90
2022-10-17T17:49:42.347Z,60.48
2022-10-17T17:52:14.111Z,60.64
2022-10-17T17:54:45.922Z,60.94
2022-10-17T17:57:17.653Z,61.26
2022-10-17T17:59:50.267Z,61.41
2022-10-17T18:02:21.981Z,61.89
2022-10-17T18:04:53.654Z,62.34
2022-10-17T18:07:26.840Z,62.46
2022-10-17T18:09:58.663Z,63.00
2022-10-17T18:12:31.125Z,63.17
2022-10-17T18:15:04.822Z,63.38
2022-10-17T18:17:36.742Z,63.65
2022-10-17T18:20:08.814Z,63.74
2022-10-17T18:22:40.593Z,64.21
2022-10-17T18:25:12.924Z,64.64
2022-10-17T18:27:44.603Z,65.12
2022-10-17T18:30:16.569Z,65.21
2022-10-17T18:32:48.320Z,64.81
2022-10-17T18:35:19.944Z,65.25
2022-10-17T18:37:51.651Z,65.51
2022-10-17T18:40:23.390Z,65.83
2022-10-17T18:42:55.084Z,65.92
2022-10-17T18:45:27.175Z,65.88
2022-10-17T18:47:59.067Z,66.22
2022-10-17T18:50:30.742Z,66.55
2022-10-17T18:53:02.415Z,66.79
2022-10-17T18:55:34.120Z,66.86
2022-10-17T18:58:05.949Z,67.14
2022-10-17T19:00:37.595Z,67.26
2022-10-17T19:03:13.260Z,67.27
2022-10-17T19:05:46.274Z,67.45
2022-10-17T19:08:17.976Z,67.34
2022-10-17T19:10:50.029Z,67.18
2022-10-17T19:13:21.855Z,67.76
2022-10-17T19:15:56.058Z,67.95
2022-10-17T19:18:27.712Z,67.98
2022-10-17T19:21:08.917Z,68.36
2022-10-17T19:23:40.649Z,68.45
2022-10-17T19:26:15.907Z,68.49
2022-10-17T19:28:48.123Z,68.61
2022-10-17T19:31:27.107Z,68.72
2022-10-17T19:34:00.235Z,68.85
2022-10-17T19:36:34.117Z,69.01
2022-10-17T19:39:09.423Z,69.16
2022-10-17T19:41:43.318Z,69.10
2022-10-17T19:44:16.226Z,69.76
2022-10-17T19:46:49.428Z,69.78
2022-10-17T19:49:21.502Z,69.95
2022-10-17T19:51:57.470Z,70.03
2022-10-17T19:54:29.366Z,70.07
2022-10-17T19:57:01.056Z,70.22
2022-10-17T19:59:33.146Z,70.40
2022-10-17T20:02:04.958Z,70.36
2022-10-17T20:04:49.528Z,70.30
2022-10-17T20:07:30.706Z,70.97
2022-10-17T20:10:02.510Z,71.20
2022-10-17T20:12:34.885Z,71.29
2022-10-17T20:15:08.105Z,71.38
2022-10-17T20:17:39.816Z,71.32
2022-10-17T20:20:11.768Z,71.11
2022-10-17T20:22:46.334Z,71.15
2022-10-17T20:25:17.932Z,71.57
2022-10-17T20:27:50.250Z,71.43
2022-10-17T20:30:25.127Z,71.88
2022-10-17T20:32:56.971Z,72.36
2022-10-17T20:35:29.240Z,72.25
2022-10-17T20:38:04.785Z,72.21
2022-10-17T20:40:40.140Z,72.28
2022-10-17T20:43:13.454Z,72.73
2022-10-17T20:45:51.346Z,72.52
2022-10-17T20:48:24.207Z,72.43
2022-10-17T20:50:56.064Z,72.61
2022-10-17T20:53:43.064Z,72.74
2022-10-17T20:56:30.553Z,73.48
2022-10-17T20:59:05.483Z,73.65
2022-10-17T21:01:37.290Z,73.99
2022-10-17T21:04:45.284Z,74.17
2022-10-17T21:07:04.203Z,73.56
2022-10-17T21:09:37.197Z,73.63
2022-10-17T21:12:15.218Z,73.64
2022-10-17T21:14:53.814Z,73.37
2022-10-17T21:17:25.727Z,73.77
2022-10-17T21:19:57.543Z,74.15
2022-10-17T21:22:29.826Z,74.21
2022-10-17T21:25:01.868Z,74.20
2022-10-17T21:27:36.932Z,74.58
2022-10-17T21:30:09.102Z,74.99
2022-10-17T21:32:51.678Z,75.03
2022-10-17T21:35:23.732Z,75.05
2022-10-17T21:37:55.539Z,75.01
2022-10-17T21:40:27.237Z,75.27
2022-10-17T21:42:59.257Z,75.50
2022-10-17T21:45:30.919Z,75.30
2022-10-17T21:48:12.494Z,75.31
2022-10-17T21:50:44.929Z,75.51
2022-10-17T21:53:16.689Z,76.09
2022-10-17T21:55:48.373Z,76.26
2022-10-17T21:58:21.777Z,76.44
2022-10-17T22:00:53.447Z,76.74
2022-10-17T22:03:29.061Z,76.84
2022-10-17T22:06:12.742Z,77.00
2022-10-17T22:08:56.230Z,76.64
2022-10-17T22:11:31.615Z,76.81
2022-10-17T22:14:13.731Z,77.34
2022-10-17T22:16:46.580Z,77.65
2022-10-17T22:19:22.490Z,77.53
2022-10-17T22:21:55.193Z,77.47
2022-10-17T22:24:27.183Z,77.75
2022-10-17T22:26:58.889Z,77.87
2022-10-17T22:29:30.665Z,77.66
2022-10-17T22:32:02.347Z,78.04
2022-10-17T22:34:36.611Z,78.14
2022-10-17T22:37:09.305Z,78.35
2022-10-17T22:39:40.964Z,77.90
2022-10-17T22:42:12.678Z,78.12
2022-10-17T22:44:46.506Z,78.39
2022-10-17T22:47:18.188Z,78.13
2022-10-17T22:49:49.877Z,77.85
2022-10-17T22:52:21.575Z,78.36
2022-10-17T22:54:53.581Z,78.44
2022-10-17T22:57:28.312Z,78.35
2022-10-17T22:59:59.925Z,78.30
2022-10-17T23:02:32.678Z,78.66
2022-10-17T23:05:07.586Z,78.61
2022-10-17T23:07:39.547Z,78.44
2022-10-17T23:10:11.393Z,78.54
2022-10-17T23:12:43.504Z,78.65
2022-10-17T23:15:15.296Z,78.93
2022-10-17T23:17:49.689Z,79.05
2022-10-17T23:20:21.607Z,79.16
2022-10-17T23:22:56.339Z,78.81
2022-10-17T23:25:28.131Z,78.85
2022-10-17T23:27:59.898Z,79.81
2022-10-17T23:30:35.162Z,80.47
2022-10-17T23:33:08.283Z,81.19
2022-10-17T23:35:40.121Z,81.51
2022-10-17T23:38:11.747Z,81.54
2022-10-17T23:40:43.423Z,81.62
2022-10-17T23:43:15.058Z,81.38
2022-10-17T23:45:46.687Z,81.61
2022-10-17T23:48:18.626Z,81.41
2022-10-17T23:50:50.327Z,81.24
2022-10-17T23:53:25.248Z,81.02
2022-10-17T23:55:58.909Z,81.62
2022-10-17T23:58:32.974Z,81.27
